首页
METAR-TAF:

METAR-TAF

机场 :

都柏林机场

都柏林, 爱尔兰

纬度: 53-26N, 经度: 006-15W, 海拔: 68米

当前天气观测

该预报发布于26分钟前的10:30 UTC
风速8节,风向北转东北,在东北之间变化
温度 16°C
湿度 94%
气压 1016 hPa
能見度: 8000
多云层高于300英尺
多云层高于500英尺

METAR: EIDW 141030Z 03008KT 350V050 8000 BKN003 BKN005 16/15 Q1016 BECMG BKN007

时间: 11:56 (10:56 UTC)

预报

该预报发布于1小时和0分钟前的09:56 UTC
预报有效从14日的 09点(UTC)到 15日的 06点(UTC)
风速8节,风向东北
能见度10公里或以上
多云层高于800英尺
短暂存在
从 14日的 09点(UTC)到 14日的 11点(UTC)
能見度: 3000
多云层高于200英尺
轻雾
成为
从 14日的 11点(UTC)到 14日的 13点(UTC)
多云层高于1800英尺
成为
从 14日的 21点(UTC)到 14日的 23点(UTC)
风速3节,风向多变
几率 40% :
短暂存在
从 14日的 23点(UTC)到 15日的 01点(UTC)
能見度: 3000
轻雾
短暂存在
从 15日的 01点(UTC)到 15日的 06点(UTC)
能見度: 3000
轻雾

TAF: EIDW 140956Z 1409/1506 05008KT 9999 BKN008 TEMPO 1409/1411 3000 BR BKN002 BECMG 1411/1413 BKN018 BECMG 1421/1423 VRB03KT PROB40 TEMPO 1423/1501 3000 BR TEMPO 1501/1506 3000 BR

超过4000个机场的气象观测和天气预报(METAR&TAF报告)。

可查询的气象台以黄色和红色小点在地图上表示。

将鼠标移到小点上方,可查看气象台名称。

然后点击查看天气观测和预报。

如需切换地图:点击带黑十字的绿色按钮放大地图;点击带横线的绿色按钮缩小地图;或者点击绿色箭头查看邻近地区的地图。


METAR-TAF: